Quincy, Illinois
Current Conditions -  °F | °C
As of 7:54 AM on Thursday 30 Oct 2014 (Local Time) from KUIN Reporting Station
Overcast Overcast  
Wind Chill: 39°   Ceiling: 9500
Heat Index: 43°   Visibility: 10mi
Dew Point: 35°   Wind: 7mph
Humidity: 74%   Direction: 150°SSE
Pressure: 30.1"   Gusts: NA
Location:  39.94°N, 91.39°W
Report Text: KUIN 301254Z AUTO 15006KT 10SM OVC095 06/02 A3010 RMK AO2 SLP193 T00610017
Loading
Personal Weather Stations






























Interactive Weather Map New forecast layout! Learn more

10-Day Weather Forecast

Advertisements
Track Severe Weather on mobile